Armstrong, Florida
Current Conditions -  °F | °C
As of 2:58 PM on Friday 28 Nov 2014 (Local Time) from KSGJ Reporting Station
Broken Clouds Broken Clouds  
Wind Chill: 54°   Ceiling: 3100
Heat Index: 54°   Visibility: 10mi
Dew Point: 40°   Wind: 15mph
Humidity: 59%   Direction: 20°NNE
Pressure: 30.31"   Gusts: 21mph
Location:  29.7919°N, 81.4499°W
Report Text: KSGJ 281958Z 02013G18KT 10SM BKN031 12/04 A3031 RMK AO2 SLP263 T01220044
Loading
Personal Weather Stations






























Interactive Weather Map New forecast layout! Learn more

10-Day Weather Forecast

Advertisements
Track Severe Weather on mobile